createdAt,value
2017-08-25T00:00:03.012Z,78.99
2017-08-25T00:02:31.417Z,79.27
2017-08-25T00:04:59.784Z,79.53
2017-08-25T00:07:28.173Z,78.79
2017-08-25T00:09:56.556Z,79.87
2017-08-25T00:12:24.972Z,80.03
2017-08-25T00:14:53.364Z,80.84
2017-08-25T00:17:21.737Z,80.84
2017-08-25T00:19:50.141Z,80.55
2017-08-25T00:22:18.525Z,80.26
2017-08-25T00:24:46.929Z,79.89
2017-08-25T00:27:15.320Z,79.33
2017-08-25T00:29:43.690Z,78.98
2017-08-25T00:32:12.085Z,78.99
2017-08-25T00:34:40.446Z,78.53
2017-08-25T00:37:08.848Z,78.39
2017-08-25T00:39:37.246Z,78.40
2017-08-25T00:42:05.618Z,78.25
2017-08-25T00:44:34.015Z,78.80
2017-08-25T00:47:02.425Z,78.94
2017-08-25T00:49:30.833Z,79.95
2017-08-25T00:51:59.211Z,79.20
2017-08-25T00:54:27.638Z,78.71
2017-08-25T00:56:56.010Z,79.28
2017-08-25T00:59:24.374Z,79.41
2017-08-25T01:01:52.846Z,78.92
2017-08-25T01:04:21.255Z,79.03
2017-08-25T01:06:49.672Z,80.15
2017-08-25T01:09:18.046Z,79.49
2017-08-25T01:11:46.462Z,79.17
2017-08-25T01:14:14.841Z,79.92
2017-08-25T01:16:43.242Z,79.99
2017-08-25T01:19:11.665Z,79.35
2017-08-25T01:21:40.042Z,79.10
2017-08-25T01:24:08.439Z,79.20
2017-08-25T01:26:36.852Z,78.88
2017-08-25T01:29:05.242Z,78.48
2017-08-25T01:31:33.634Z,78.88
2017-08-25T01:34:02.037Z,78.86
2017-08-25T01:36:30.431Z,78.81
2017-08-25T01:38:58.812Z,79.02
2017-08-25T01:41:27.238Z,78.85
2017-08-25T01:43:55.634Z,78.75
2017-08-25T01:46:24.027Z,78.77
2017-08-25T01:48:52.438Z,79.40
2017-08-25T01:51:20.816Z,79.58
2017-08-25T01:53:49.222Z,80.37
2017-08-25T01:56:17.596Z,80.16
2017-08-25T01:58:45.990Z,80.44
2017-08-25T02:01:14.383Z,80.00
2017-08-25T02:03:42.783Z,79.78
2017-08-25T02:06:11.191Z,79.59
2017-08-25T02:08:39.570Z,79.93
2017-08-25T02:11:07.960Z,79.64
2017-08-25T02:13:36.377Z,79.61
2017-08-25T02:16:04.759Z,80.35
2017-08-25T02:18:33.171Z,80.90
2017-08-25T02:21:01.556Z,81.17
2017-08-25T02:23:29.938Z,81.17
2017-08-25T02:25:58.355Z,81.59
2017-08-25T02:28:26.757Z,81.33
2017-08-25T02:30:55.137Z,81.07
2017-08-25T02:33:23.543Z,80.34
2017-08-25T02:35:51.964Z,80.55
2017-08-25T02:38:20.371Z,80.76
2017-08-25T02:40:48.766Z,80.98
2017-08-25T02:43:17.152Z,81.01
2017-08-25T02:45:45.559Z,80.85
2017-08-25T02:48:13.955Z,80.99
2017-08-25T02:50:42.354Z,81.00
2017-08-25T02:53:10.744Z,80.74
2017-08-25T02:55:39.144Z,80.42
2017-08-25T02:58:07.555Z,81.00
2017-08-25T03:00:35.945Z,80.89
2017-08-25T03:03:04.341Z,80.52
2017-08-25T03:05:32.706Z,80.41
2017-08-25T03:08:01.092Z,80.54
2017-08-25T03:10:29.483Z,80.31
2017-08-25T03:12:57.859Z,80.06
2017-08-25T03:15:26.224Z,79.90
2017-08-25T03:17:54.619Z,79.74
2017-08-25T03:20:22.986Z,79.60
2017-08-25T03:22:51.350Z,79.95
2017-08-25T03:25:19.745Z,80.21
2017-08-25T03:27:48.110Z,79.80
2017-08-25T03:30:16.531Z,79.65
2017-08-25T03:32:44.894Z,79.27
2017-08-25T03:35:13.262Z,79.02
2017-08-25T03:37:41.663Z,79.22
2017-08-25T03:40:10.033Z,78.71
2017-08-25T03:42:38.431Z,79.26
2017-08-25T03:45:06.826Z,79.02
2017-08-25T03:47:35.234Z,78.99
2017-08-25T03:50:03.629Z,79.43
2017-08-25T03:52:32.019Z,79.32
2017-08-25T03:55:00.426Z,79.52
2017-08-25T03:57:28.817Z,79.96
2017-08-25T03:59:57.214Z,80.58
2017-08-25T04:02:25.600Z,80.86
2017-08-25T04:04:53.990Z,80.94
2017-08-25T04:07:22.376Z,81.15
2017-08-25T04:09:50.763Z,81.41
2017-08-25T04:12:19.192Z,81.44
2017-08-25T04:14:47.570Z,81.75
2017-08-25T04:17:15.947Z,81.38
2017-08-25T04:19:44.345Z,81.96
2017-08-25T04:22:12.729Z,82.64
2017-08-25T04:24:41.115Z,82.20
2017-08-25T04:27:09.519Z,82.34
2017-08-25T04:29:37.904Z,81.81
2017-08-25T04:32:06.317Z,82.75
2017-08-25T04:34:34.756Z,82.28
2017-08-25T04:37:03.128Z,81.91
2017-08-25T04:39:31.529Z,81.47
2017-08-25T04:41:59.925Z,81.12
2017-08-25T04:44:28.308Z,80.98
2017-08-25T04:46:56.703Z,80.63
2017-08-25T04:49:25.071Z,80.43
2017-08-25T04:51:53.467Z,80.37
2017-08-25T04:54:21.852Z,80.25
2017-08-25T04:56:50.237Z,80.77
2017-08-25T04:59:18.637Z,80.80
2017-08-25T05:01:47.023Z,80.36
2017-08-25T05:04:15.405Z,80.18
2017-08-25T05:06:43.823Z,79.98
2017-08-25T05:09:12.211Z,80.32
2017-08-25T05:11:40.610Z,80.40
2017-08-25T05:14:08.982Z,80.05
2017-08-25T05:16:37.361Z,80.32
2017-08-25T05:19:05.736Z,81.44
2017-08-25T05:21:34.100Z,81.98
2017-08-25T05:24:02.541Z,81.66
2017-08-25T05:26:32.222Z,81.36
2017-08-25T05:29:00.637Z,81.34
2017-08-25T05:31:29.018Z,80.66
2017-08-25T05:33:57.407Z,80.63
2017-08-25T05:36:25.801Z,79.68
2017-08-25T05:38:54.207Z,79.58
2017-08-25T05:41:22.597Z,80.33
2017-08-25T05:43:51.002Z,80.36
2017-08-25T05:46:19.389Z,80.43
2017-08-25T05:48:47.756Z,79.65
2017-08-25T05:51:16.160Z,79.56
2017-08-25T05:53:44.560Z,79.22
2017-08-25T05:56:12.925Z,79.45
2017-08-25T05:58:41.339Z,79.08
2017-08-25T06:01:09.737Z,79.10
2017-08-25T06:03:38.131Z,78.98
2017-08-25T06:06:06.511Z,77.89
2017-08-25T06:08:34.901Z,76.69
2017-08-25T06:11:03.305Z,76.92
2017-08-25T06:13:31.688Z,76.51
2017-08-25T06:16:00.127Z,75.31
2017-08-25T06:18:28.506Z,75.52
2017-08-25T06:20:56.941Z,74.75
2017-08-25T06:23:25.369Z,75.84
2017-08-25T06:25:53.817Z,75.74
2017-08-25T06:28:22.200Z,75.41
2017-08-25T06:30:50.579Z,75.35
2017-08-25T06:33:18.976Z,74.89
2017-08-25T06:35:47.345Z,74.64
2017-08-25T06:38:15.749Z,74.37
2017-08-25T06:40:44.128Z,74.01
2017-08-25T06:43:12.495Z,74.17
2017-08-25T06:45:40.912Z,74.97
2017-08-25T06:48:09.300Z,74.09
2017-08-25T06:50:37.675Z,74.60
2017-08-25T06:53:06.070Z,74.65
2017-08-25T06:55:34.461Z,74.10
2017-08-25T06:58:02.852Z,73.92
2017-08-25T07:00:31.222Z,74.61
2017-08-25T07:02:59.633Z,74.59
2017-08-25T07:05:28.027Z,75.61
2017-08-25T07:07:56.394Z,75.01
2017-08-25T07:10:24.789Z,74.70
2017-08-25T07:12:53.203Z,74.44
2017-08-25T07:15:22.188Z,73.17
2017-08-25T07:17:50.578Z,72.93
2017-08-25T07:20:18.983Z,72.46
2017-08-25T07:22:47.364Z,71.56
2017-08-25T07:25:15.734Z,71.59
2017-08-25T07:27:44.160Z,71.17
2017-08-25T07:30:12.542Z,71.08
2017-08-25T07:32:40.913Z,70.68
2017-08-25T07:35:09.327Z,70.36
2017-08-25T07:37:37.693Z,70.10
2017-08-25T07:40:06.085Z,71.00
2017-08-25T07:42:34.515Z,70.45
2017-08-25T07:45:02.900Z,70.20
2017-08-25T07:47:31.276Z,70.55
2017-08-25T07:49:59.716Z,70.44
2017-08-25T07:52:28.089Z,70.39
2017-08-25T07:54:56.499Z,69.55
2017-08-25T07:57:24.873Z,70.48
2017-08-25T07:59:53.238Z,68.91
2017-08-25T08:02:21.632Z,68.22
2017-08-25T08:04:50.002Z,67.75
2017-08-25T08:07:18.397Z,66.81
2017-08-25T08:09:46.801Z,67.38
2017-08-25T08:12:15.165Z,67.53
2017-08-25T08:14:43.535Z,66.36
2017-08-25T08:17:11.921Z,66.15
2017-08-25T08:19:40.303Z,65.65
2017-08-25T08:22:08.709Z,65.74
2017-08-25T08:24:37.077Z,64.58
2017-08-25T08:27:05.481Z,64.03
2017-08-25T08:29:33.845Z,63.18
2017-08-25T08:32:02.238Z,62.77
2017-08-25T08:34:30.640Z,62.63
2017-08-25T08:36:59.015Z,64.30
2017-08-25T08:39:27.403Z,63.07
2017-08-25T08:41:56.711Z,62.23
2017-08-25T08:44:25.083Z,60.99
2017-08-25T08:46:53.451Z,64.02
2017-08-25T08:49:21.849Z,62.83
2017-08-25T08:51:50.217Z,62.40
2017-08-25T08:54:18.589Z,61.90
2017-08-25T08:56:46.996Z,60.29
2017-08-25T08:59:15.366Z,62.13
2017-08-25T09:01:43.772Z,59.56
2017-08-25T09:04:12.176Z,58.40
2017-08-25T09:06:40.559Z,57.51
2017-08-25T09:09:08.967Z,58.73
2017-08-25T09:11:37.347Z,57.96
2017-08-25T09:14:05.731Z,57.02
2017-08-25T09:16:34.143Z,56.42
2017-08-25T09:19:02.522Z,56.37
2017-08-25T09:21:30.925Z,56.01
2017-08-25T09:23:59.291Z,54.53
2017-08-25T09:26:27.665Z,53.60
2017-08-25T09:28:56.061Z,53.63
2017-08-25T09:31:24.421Z,52.54
2017-08-25T09:33:52.792Z,54.24
2017-08-25T09:36:21.192Z,53.69
2017-08-25T09:38:49.583Z,55.56
2017-08-25T09:41:17.949Z,53.58
2017-08-25T09:43:46.356Z,52.13
2017-08-25T09:46:14.731Z,51.61
2017-08-25T09:48:43.107Z,51.72
2017-08-25T09:51:11.508Z,52.49
2017-08-25T09:53:39.905Z,51.16
2017-08-25T09:56:08.308Z,51.75
2017-08-25T09:58:36.733Z,52.04
2017-08-25T10:01:05.112Z,47.79
2017-08-25T10:03:33.525Z,50.67
2017-08-25T10:06:01.906Z,50.79
2017-08-25T10:08:30.286Z,50.42
2017-08-25T10:10:58.691Z,49.66
2017-08-25T10:13:27.083Z,49.55
2017-08-25T10:15:55.484Z,48.25
2017-08-25T10:18:23.929Z,46.13
2017-08-25T10:20:53.211Z,45.27
2017-08-25T10:23:21.581Z,46.63
2017-08-25T10:25:49.990Z,46.52
2017-08-25T10:28:18.361Z,49.22
2017-08-25T10:30:46.738Z,45.56
2017-08-25T10:33:32.918Z,47.19
2017-08-25T10:49:51.807Z,45.08
2017-08-25T10:52:20.213Z,45.89
2017-08-25T10:54:48.601Z,46.83
2017-08-25T10:57:17.002Z,44.36
2017-08-25T10:59:45.367Z,47.11
2017-08-25T11:02:13.770Z,46.93
2017-08-25T11:04:42.151Z,45.96
2017-08-25T11:07:10.535Z,46.22
2017-08-25T11:09:38.928Z,44.82
2017-08-25T11:12:07.293Z,44.83
2017-08-25T11:14:35.668Z,42.30
2017-08-25T11:17:04.054Z,44.55
2017-08-25T11:19:32.425Z,45.00
2017-08-25T11:22:00.788Z,45.17
2017-08-25T11:24:29.184Z,43.57
2017-08-25T11:26:57.544Z,43.90
2017-08-25T11:29:25.921Z,42.60
2017-08-25T11:31:54.344Z,42.62
2017-08-25T11:34:22.719Z,40.69
2017-08-25T11:36:51.098Z,41.01
2017-08-25T11:39:19.497Z,41.87
2017-08-25T11:41:47.856Z,41.07
2017-08-25T11:44:16.226Z,44.22
2017-08-25T11:46:44.618Z,44.14
2017-08-25T11:49:13.012Z,42.45
2017-08-25T11:51:41.386Z,40.99
2017-08-25T11:54:09.786Z,39.21
2017-08-25T11:56:38.908Z,41.23
2017-08-25T11:59:07.334Z,40.69
2017-08-25T12:01:35.712Z,41.67
2017-08-25T12:04:04.105Z,39.68
2017-08-25T12:06:32.472Z,40.27
2017-08-25T12:09:00.853Z,39.67
2017-08-25T12:11:29.272Z,40.45
2017-08-25T12:13:57.664Z,40.90
2017-08-25T12:16:26.034Z,40.85
2017-08-25T12:18:54.444Z,41.53
2017-08-25T12:21:22.819Z,40.70
2017-08-25T12:23:51.214Z,41.13
2017-08-25T12:26:19.582Z,40.41
2017-08-25T12:28:47.957Z,39.33
2017-08-25T12:31:16.357Z,40.08
2017-08-25T12:33:44.859Z,38.86
2017-08-25T12:36:13.234Z,39.12
2017-08-25T12:38:41.624Z,40.56
2017-08-25T12:41:10.000Z,40.39
2017-08-25T12:43:38.365Z,39.33
2017-08-25T12:46:06.779Z,36.68
2017-08-25T12:48:35.163Z,37.26
2017-08-25T12:51:03.524Z,38.40
2017-08-25T12:53:31.931Z,37.83
2017-08-25T12:56:00.295Z,39.06
2017-08-25T12:58:28.663Z,39.11
2017-08-25T13:00:57.063Z,36.29
2017-08-25T13:03:25.438Z,36.65
2017-08-25T13:05:53.800Z,36.96
2017-08-25T13:08:22.219Z,38.23
2017-08-25T13:10:50.607Z,37.18
2017-08-25T13:13:18.983Z,37.38
2017-08-25T13:15:47.383Z,36.68
2017-08-25T13:18:15.745Z,36.89
2017-08-25T13:20:44.876Z,37.10
2017-08-25T13:23:13.279Z,38.12
2017-08-25T13:25:41.649Z,37.58
2017-08-25T13:28:10.026Z,34.66
2017-08-25T13:30:38.417Z,36.19
2017-08-25T13:33:06.804Z,33.36
2017-08-25T13:35:35.184Z,33.70
2017-08-25T13:38:03.570Z,32.84
2017-08-25T13:40:31.931Z,33.60
2017-08-25T13:43:00.292Z,34.98
2017-08-25T13:45:28.703Z,34.16
2017-08-25T13:47:57.079Z,35.50
2017-08-25T13:50:25.486Z,35.49
2017-08-25T13:52:53.848Z,33.79
2017-08-25T13:55:22.224Z,34.09
2017-08-25T13:57:50.618Z,35.05
2017-08-25T14:00:18.992Z,32.41
2017-08-25T14:02:47.355Z,31.56
2017-08-25T14:05:15.767Z,30.30
2017-08-25T14:07:44.133Z,29.40
2017-08-25T14:10:12.500Z,29.02
2017-08-25T14:12:40.898Z,29.67
2017-08-25T14:15:09.261Z,28.84
2017-08-25T14:17:37.630Z,28.82
2017-08-25T14:20:06.024Z,28.96
2017-08-25T14:22:34.380Z,29.94
2017-08-25T14:25:02.763Z,29.11
2017-08-25T14:27:31.166Z,29.13
2017-08-25T14:29:59.525Z,30.29
2017-08-25T14:32:27.887Z,31.83
2017-08-25T14:34:56.290Z,30.83
2017-08-25T14:37:24.670Z,30.08
2017-08-25T14:39:53.044Z,29.87
2017-08-25T14:42:21.439Z,29.32
2017-08-25T14:44:49.797Z,29.30
2017-08-25T14:47:18.192Z,29.49
2017-08-25T14:49:46.594Z,28.49
2017-08-25T14:52:14.953Z,30.17
2017-08-25T14:54:43.319Z,31.30
2017-08-25T14:57:11.696Z,31.28
2017-08-25T14:59:40.077Z,33.42
2017-08-25T15:02:08.446Z,32.94
2017-08-25T15:04:36.846Z,31.45
2017-08-25T15:07:05.655Z,32.00
2017-08-25T15:09:34.022Z,32.17
2017-08-25T15:12:02.424Z,31.79
2017-08-25T15:14:30.800Z,33.27
2017-08-25T15:16:59.172Z,33.87
2017-08-25T15:19:27.580Z,34.19
2017-08-25T15:21:55.937Z,33.95
2017-08-25T15:24:24.311Z,34.43
2017-08-25T15:26:52.722Z,35.63
2017-08-25T15:29:21.112Z,35.79
2017-08-25T15:31:49.473Z,35.53
2017-08-25T15:34:17.864Z,37.62
2017-08-25T15:36:46.241Z,37.09
2017-08-25T15:39:14.601Z,36.45
2017-08-25T15:41:43.002Z,36.15
2017-08-25T15:44:11.380Z,36.92
2017-08-25T15:46:39.745Z,35.68
2017-08-25T15:49:08.133Z,35.52
2017-08-25T15:51:36.499Z,35.66
2017-08-25T15:54:04.876Z,35.34
2017-08-25T15:56:33.262Z,33.80
2017-08-25T15:59:01.639Z,33.76
2017-08-25T16:01:30.001Z,31.59
2017-08-25T16:03:58.391Z,31.65
2017-08-25T16:06:26.759Z,31.92
2017-08-25T16:08:55.118Z,33.85
2017-08-25T16:11:23.505Z,34.65
2017-08-25T16:13:51.881Z,33.98
2017-08-25T16:16:20.250Z,34.26
2017-08-25T16:18:48.670Z,35.34
2017-08-25T16:21:17.031Z,36.63
2017-08-25T16:23:45.395Z,39.37
2017-08-25T16:26:13.788Z,39.19
2017-08-25T16:28:42.158Z,38.25
2017-08-25T16:31:10.525Z,41.18
2017-08-25T16:33:38.927Z,42.13
2017-08-25T16:36:07.295Z,42.65
2017-08-25T16:38:35.669Z,43.57
2017-08-25T16:41:04.062Z,44.44
2017-08-25T16:43:32.431Z,46.57
2017-08-25T16:46:00.819Z,46.26
2017-08-25T16:48:29.228Z,47.91
2017-08-25T16:50:57.616Z,49.30
2017-08-25T16:53:26.009Z,48.24
2017-08-25T16:55:54.411Z,49.88
2017-08-25T16:58:22.781Z,48.94
2017-08-25T17:00:51.150Z,48.67
2017-08-25T17:03:19.551Z,49.93
2017-08-25T17:05:47.927Z,50.15
2017-08-25T17:08:16.305Z,50.28
2017-08-25T17:10:44.703Z,48.92
2017-08-25T17:13:13.080Z,48.81
2017-08-25T17:15:41.450Z,48.02
2017-08-25T17:18:09.856Z,47.11
2017-08-25T17:20:38.222Z,47.31
2017-08-25T17:23:06.598Z,46.59
2017-08-25T17:25:35.005Z,45.76
2017-08-25T17:28:03.365Z,46.58
2017-08-25T17:30:31.741Z,45.55
2017-08-25T17:33:00.135Z,47.41
2017-08-25T17:35:28.514Z,48.42
2017-08-25T17:37:56.883Z,48.61
2017-08-25T17:40:25.273Z,47.50
2017-08-25T17:42:53.654Z,48.75
2017-08-25T17:45:22.042Z,49.55
2017-08-25T17:47:50.437Z,50.77
2017-08-25T17:50:18.809Z,51.67
2017-08-25T17:52:47.187Z,51.38
2017-08-25T17:55:15.573Z,50.84
2017-08-25T17:57:43.940Z,52.99
2017-08-25T18:00:12.289Z,52.99
2017-08-25T18:02:40.702Z,54.06
2017-08-25T18:05:09.092Z,54.86
2017-08-25T18:07:37.452Z,54.97
2017-08-25T18:10:05.853Z,56.07
2017-08-25T18:12:34.227Z,56.50
2017-08-25T18:15:02.599Z,56.30
2017-08-25T18:17:31.002Z,57.38
2017-08-25T18:19:59.360Z,56.83
2017-08-25T18:22:27.735Z,57.72
2017-08-25T18:24:56.129Z,58.21
2017-08-25T18:27:24.499Z,58.83
2017-08-25T18:29:52.883Z,58.02
2017-08-25T18:32:21.290Z,59.45
2017-08-25T18:34:49.657Z,59.93
2017-08-25T18:37:18.032Z,59.82
2017-08-25T18:39:46.423Z,61.15
2017-08-25T18:42:14.790Z,61.22
2017-08-25T18:44:43.158Z,61.25
2017-08-25T18:47:11.582Z,61.92
2017-08-25T18:49:39.956Z,61.73
2017-08-25T18:52:08.321Z,63.83
2017-08-25T18:54:36.740Z,63.52
2017-08-25T18:57:05.116Z,63.47
2017-08-25T18:59:33.504Z,64.14
2017-08-25T19:02:01.907Z,64.45
2017-08-25T19:04:30.282Z,65.01
2017-08-25T19:06:58.656Z,65.76
2017-08-25T19:09:27.057Z,65.85
2017-08-25T19:11:55.431Z,66.79
2017-08-25T19:14:23.793Z,65.63
2017-08-25T19:16:52.185Z,65.69
2017-08-25T19:19:20.545Z,66.06
2017-08-25T19:21:48.904Z,66.48
2017-08-25T19:24:17.289Z,66.59
2017-08-25T19:26:45.645Z,66.52
2017-08-25T19:29:14.002Z,66.33
2017-08-25T19:31:42.400Z,66.76
2017-08-25T19:34:10.767Z,66.88
2017-08-25T19:36:39.127Z,67.58
2017-08-25T19:39:07.539Z,67.79
2017-08-25T19:41:35.911Z,68.13
2017-08-25T19:44:04.290Z,67.78
2017-08-25T19:46:32.713Z,67.63
2017-08-25T19:49:01.072Z,67.11
2017-08-25T19:51:29.425Z,67.33
2017-08-25T19:53:57.831Z,67.97
2017-08-25T19:56:26.213Z,68.80
2017-08-25T19:58:54.621Z,68.24
2017-08-25T20:01:23.030Z,68.05
2017-08-25T20:03:51.392Z,68.39
2017-08-25T20:06:19.766Z,68.66
2017-08-25T20:08:48.165Z,69.16
2017-08-25T20:11:16.526Z,69.65
2017-08-25T20:13:44.906Z,69.77
2017-08-25T20:16:13.301Z,69.68
2017-08-25T20:18:41.665Z,70.10
2017-08-25T20:21:10.036Z,70.66
2017-08-25T20:23:38.440Z,70.66
2017-08-25T20:26:06.820Z,70.75
2017-08-25T20:28:35.183Z,70.56
2017-08-25T20:31:03.613Z,70.62
2017-08-25T20:33:31.977Z,70.57
2017-08-25T20:36:00.341Z,70.60
2017-08-25T20:38:28.744Z,70.61
2017-08-25T20:40:57.108Z,70.47
2017-08-25T20:43:25.504Z,70.51
2017-08-25T20:45:53.901Z,70.73
2017-08-25T20:48:22.261Z,70.82
2017-08-25T20:50:50.624Z,71.36
2017-08-25T20:53:19.032Z,72.02
2017-08-25T20:55:47.409Z,72.16
2017-08-25T20:58:15.913Z,72.20
2017-08-25T21:00:44.352Z,72.48
2017-08-25T21:03:12.734Z,72.33
2017-08-25T21:05:41.117Z,72.02
2017-08-25T21:08:09.541Z,71.85
2017-08-25T21:10:37.904Z,71.89
2017-08-25T21:13:06.291Z,72.19
2017-08-25T21:15:34.693Z,72.36
2017-08-25T21:18:03.086Z,72.95
2017-08-25T21:20:31.454Z,73.37
2017-08-25T21:22:59.855Z,73.79
2017-08-25T21:25:28.251Z,73.58
2017-08-25T21:27:56.653Z,73.46
2017-08-25T21:30:25.036Z,73.46
2017-08-25T21:32:53.415Z,73.62
2017-08-25T21:35:21.813Z,73.63
2017-08-25T21:37:50.187Z,73.45
2017-08-25T21:40:18.565Z,73.53
2017-08-25T21:42:47.305Z,73.58
2017-08-25T21:45:15.687Z,74.51
2017-08-25T21:47:44.076Z,74.41
2017-08-25T21:50:12.481Z,73.93
2017-08-25T21:52:40.846Z,73.90
2017-08-25T21:55:09.231Z,73.79
2017-08-25T21:57:37.609Z,73.56
2017-08-25T22:00:06.064Z,73.60
2017-08-25T22:02:34.469Z,73.51
2017-08-25T22:05:02.843Z,73.52
2017-08-25T22:07:31.205Z,73.62
2017-08-25T22:09:59.607Z,73.11
2017-08-25T22:12:27.969Z,73.02
2017-08-25T22:14:56.333Z,73.56
2017-08-25T22:17:24.725Z,73.52
2017-08-25T22:19:53.085Z,73.89
2017-08-25T22:22:21.486Z,74.05
2017-08-25T22:24:49.855Z,74.17
2017-08-25T22:27:18.226Z,74.20
2017-08-25T22:29:46.621Z,74.15
2017-08-25T22:32:14.999Z,74.40
2017-08-25T22:34:43.391Z,74.49
2017-08-25T22:37:11.757Z,74.79
2017-08-25T22:39:40.145Z,74.70
2017-08-25T22:42:08.506Z,77.06
2017-08-25T22:44:36.901Z,77.97
2017-08-25T22:47:05.266Z,77.23
2017-08-25T22:49:33.719Z,77.12
2017-08-25T22:52:02.123Z,76.91
2017-08-25T22:54:30.507Z,76.70
2017-08-25T22:56:58.869Z,76.57
2017-08-25T22:59:27.253Z,76.08
2017-08-25T23:01:55.662Z,75.98
2017-08-25T23:04:24.024Z,76.04
2017-08-25T23:06:52.396Z,75.69
2017-08-25T23:09:20.801Z,75.25
2017-08-25T23:11:49.208Z,75.04
2017-08-25T23:14:17.581Z,76.72
2017-08-25T23:16:45.988Z,78.95
2017-08-25T23:19:14.345Z,78.98
2017-08-25T23:21:42.742Z,79.29
2017-08-25T23:24:11.118Z,79.66
2017-08-25T23:26:39.512Z,79.11
2017-08-25T23:29:07.907Z,78.58
2017-08-25T23:31:36.313Z,79.35
2017-08-25T23:34:04.938Z,80.10
2017-08-25T23:36:33.593Z,79.05
2017-08-25T23:39:02.113Z,79.37
2017-08-25T23:41:30.634Z,79.92
2017-08-25T23:43:59.160Z,80.64
2017-08-25T23:46:27.691Z,81.67
2017-08-25T23:48:56.239Z,80.98
2017-08-25T23:51:24.858Z,80.85
2017-08-25T23:53:53.284Z,81.06
2017-08-25T23:56:21.983Z,81.28
2017-08-25T23:58:50.554Z,83.02
